aviador You're here:

EPRZ Decoded Metar

RZESZOW in POLAND
Report Time2017-10-18 20:00:00
UTC Time2017-10-18 20:27:24
Flight Rules vfr VFR
Wind210° at 05 kt
W.Decomp.*RWY 27: 2.1 kt HW 4.5 kt LCW
W.Rank210° ranks 7
Current wind is below 210° avg. (8.2)
Visibility9999 m
Phenomena:N/A
Clouds:N/A
Expected CloudBase > 1,200 ft AGL from Temp-Dew spread
CeilingNone
Temp14°C (ISA 0)
Dew Point11°C (82% RH)
AAT12.5°C
QNH1016 hPa
Density Alt778 ft
Elevation663 ft
Report Wrong Elevation
Raw Report
EPRZ 182000Z 21005KT CAVOK 14/11 Q1016=

Extra information for EPRZ:More info

Metar Taf Metar & Taf Last 4 Metars F.Rules Stats Wind Profile Meteogram Temp Stats Airport Information Weather charts Add Link Nearby VenuesMetar ALERT Operation Metar Decoded Social comments